createdAt,value
2022-09-28T10:18:34.840Z,98830.63
2022-09-28T10:21:23.593Z,98836.91
2022-09-28T10:24:03.571Z,98832.75
2022-09-28T10:26:35.668Z,98826.97
2022-09-28T10:29:06.255Z,98828.06
2022-09-28T10:31:41.996Z,98828.84
2022-09-28T10:34:26.439Z,98823.13
2022-09-28T10:37:06.691Z,98827.50
2022-09-28T10:39:53.559Z,98828.84
2022-09-28T10:42:29.892Z,98825.38
2022-09-28T10:45:20.124Z,98815.53
2022-09-28T10:47:46.732Z,98815.78
2022-09-28T10:50:22.628Z,98806.16
2022-09-28T10:52:53.310Z,98805.56
2022-09-28T10:56:03.959Z,98805.06
2022-09-28T10:58:42.029Z,98806.88
2022-09-28T11:01:16.305Z,98802.16
2022-09-28T11:04:04.635Z,98803.63
2022-09-28T11:06:39.267Z,98799.44
2022-09-28T11:09:32.521Z,98802.00
2022-09-28T11:12:06.868Z,98800.00
2022-09-28T11:14:42.042Z,98797.31
2022-09-28T11:17:26.433Z,98797.72
2022-09-28T11:19:53.848Z,98795.91
2022-09-28T11:22:23.438Z,98803.66
2022-09-28T11:24:52.416Z,98800.69
2022-09-28T11:27:22.103Z,98802.41
2022-09-28T11:29:58.648Z,98804.38
2022-09-28T11:32:41.822Z,98805.41
2022-09-28T11:35:29.066Z,98803.66
2022-09-28T11:38:36.381Z,98794.69
2022-09-28T11:41:41.424Z,98805.53
2022-09-28T11:44:33.222Z,98814.28
2022-09-28T11:47:27.204Z,98814.41
2022-09-28T11:50:22.899Z,98815.19
2022-09-28T11:53:18.608Z,98818.91
2022-09-28T11:55:59.730Z,98819.84
2022-09-28T11:58:42.643Z,98822.38
2022-09-28T12:01:45.816Z,98827.75
2022-09-28T12:04:36.960Z,98824.06
2022-09-28T12:07:08.380Z,98824.91
2022-09-28T12:09:41.303Z,98839.56
2022-09-28T12:12:22.158Z,98842.28
2022-09-28T12:14:53.325Z,98841.69
2022-09-28T12:17:34.541Z,98847.88
2022-09-28T12:20:16.559Z,98848.31
2022-09-28T12:22:54.096Z,98854.53
2022-09-28T12:25:23.204Z,98852.28
2022-09-28T12:28:03.292Z,98852.72
2022-09-28T12:30:35.626Z,98850.47
2022-09-28T12:33:17.897Z,98853.56
2022-09-28T12:36:11.972Z,98857.72
2022-09-28T12:39:20.233Z,98847.34
2022-09-28T12:42:18.357Z,98853.97
2022-09-28T12:44:59.294Z,98853.56
2022-09-28T12:47:45.904Z,98853.56
2022-09-28T12:50:44.771Z,98857.06
2022-09-28T12:53:28.015Z,98855.63
2022-09-28T12:55:57.140Z,98856.88
2022-09-28T12:59:02.388Z,98856.63
2022-09-28T13:01:58.363Z,98852.75
2022-09-28T13:05:02.251Z,98852.53
2022-09-28T13:07:39.611Z,98852.91
2022-09-28T13:10:23.568Z,98853.31
2022-09-28T13:13:08.327Z,98850.19
2022-09-28T13:15:45.344Z,98851.13
2022-09-28T13:18:22.740Z,98845.19
2022-09-28T13:21:03.764Z,98840.00
2022-09-28T13:23:35.582Z,98843.94
2022-09-28T13:26:14.844Z,98846.81
2022-09-28T13:28:43.488Z,98844.31
2022-09-28T13:31:11.220Z,98849.47
2022-09-28T13:33:43.975Z,98841.00
2022-09-28T13:36:25.001Z,98842.59
2022-09-28T13:38:52.323Z,98849.19
2022-09-28T13:41:21.993Z,98855.03
2022-09-28T13:44:08.280Z,98853.75
2022-09-28T13:47:04.640Z,98844.38
2022-09-28T13:49:48.098Z,98860.44
2022-09-28T13:52:43.114Z,98855.06
2022-09-28T13:55:28.882Z,98849.03
2022-09-28T13:57:56.850Z,98857.66
2022-09-28T14:00:30.798Z,98853.91
2022-09-28T14:03:04.692Z,98855.06
2022-09-28T14:05:45.408Z,98860.19
2022-09-28T14:08:47.282Z,98863.88
2022-09-28T14:11:42.578Z,98859.47
2022-09-28T14:14:08.745Z,98872.66
2022-09-28T14:16:37.376Z,98868.34
2022-09-28T14:19:10.147Z,98868.25
2022-09-28T14:22:06.367Z,98871.47
2022-09-28T14:25:00.330Z,98871.91
2022-09-28T14:27:40.375Z,98876.22
2022-09-28T14:30:25.817Z,98871.78
2022-09-28T14:32:59.648Z,98874.50
2022-09-28T14:35:56.360Z,98875.75
2022-09-28T14:38:47.376Z,98887.31
2022-09-28T14:41:17.467Z,98882.41
2022-09-28T14:43:43.470Z,98885.94
2022-09-28T14:46:15.530Z,98880.41
2022-09-28T14:48:48.257Z,98881.88
2022-09-28T14:51:35.584Z,98889.53
2022-09-28T14:54:07.556Z,98898.69
2022-09-28T14:56:38.860Z,98901.38
2022-09-28T14:59:07.087Z,98900.16
2022-09-28T15:01:35.586Z,98902.28
2022-09-28T15:04:04.762Z,98904.97
2022-09-28T15:06:48.177Z,98904.81
2022-09-28T15:09:32.479Z,98905.41
2022-09-28T15:12:10.158Z,98908.56
2022-09-28T15:14:46.124Z,98902.59
2022-09-28T15:17:16.386Z,98910.50
2022-09-28T15:20:08.860Z,98909.69
2022-09-28T15:22:36.740Z,98915.91
2022-09-28T15:25:13.705Z,98919.63
2022-09-28T15:27:41.287Z,98917.34
2022-09-28T15:30:26.630Z,98913.84
2022-09-28T15:32:56.719Z,98924.13
2022-09-28T15:35:26.363Z,98922.06
2022-09-28T15:37:54.945Z,98924.53
2022-09-28T15:40:38.735Z,98926.38
2022-09-28T15:43:24.182Z,98936.25
2022-09-28T15:46:04.497Z,98929.63
2022-09-28T15:48:40.743Z,98927.97
2022-09-28T15:51:12.808Z,98931.91
2022-09-28T15:53:48.902Z,98938.06
2022-09-28T15:56:15.067Z,98932.69
2022-09-28T15:58:41.767Z,98934.88
2022-09-28T16:01:38.293Z,98942.91
2022-09-28T16:04:48.021Z,98941.41
2022-09-28T16:07:21.059Z,98938.28
2022-09-28T16:09:56.837Z,98937.81
2022-09-28T16:12:25.330Z,98942.13
2022-09-28T16:14:53.132Z,98944.31
2022-09-28T16:17:32.529Z,98945.09
2022-09-28T16:20:03.257Z,98943.81
2022-09-28T22:18:54.972Z,99213.47
2022-09-28T22:21:32.726Z,99210.47
2022-09-28T22:24:01.192Z,99207.78
2022-09-28T22:26:28.509Z,99215.91
2022-09-28T22:28:57.204Z,99218.22
2022-09-28T22:31:26.798Z,99209.91
2022-09-28T22:33:53.722Z,99208.06
2022-09-28T22:36:20.036Z,99213.16
2022-09-28T22:38:47.394Z,99214.00
2022-09-28T22:41:20.671Z,99223.31
2022-09-28T22:43:47.461Z,99223.47
2022-09-28T22:46:16.980Z,99216.81
2022-09-28T22:48:47.497Z,99212.81
2022-09-28T22:51:14.661Z,99211.44
2022-09-28T22:53:40.768Z,99218.91
2022-09-28T22:56:07.494Z,99221.06
2022-09-28T22:58:34.659Z,99223.03
2022-09-28T23:01:12.082Z,99218.69
2022-09-28T23:03:40.228Z,99220.22
2022-09-28T23:06:07.302Z,99220.38
2022-09-28T23:08:33.395Z,99217.06
2022-09-28T23:10:59.669Z,99218.41
2022-09-28T23:13:25.775Z,99216.19
2022-09-28T23:16:02.978Z,99220.69
2022-09-28T23:18:31.861Z,99214.56
2022-09-28T23:21:01.294Z,99219.34
2022-09-28T23:23:28.044Z,99220.34
2022-09-28T23:25:55.308Z,99224.13
2022-09-28T23:28:23.207Z,99227.94
2022-09-28T23:30:49.679Z,99224.63
2022-09-28T23:33:17.179Z,99222.94
2022-09-28T23:35:44.095Z,99223.63
2022-09-28T23:38:15.492Z,99219.31
2022-09-28T23:40:41.894Z,99219.63
2022-09-28T23:43:08.695Z,99221.59
2022-09-28T23:45:35.352Z,99224.41
2022-09-28T23:48:01.796Z,99221.25
2022-09-28T23:50:28.292Z,99229.53
2022-09-28T23:52:54.387Z,99225.38
2022-09-28T23:55:20.476Z,99217.84
2022-09-28T23:57:46.690Z,99218.88
